Time;durP1;ratioP1;P1;durP2;ratioP2;P2;SDS_P1;SDS_P2;PMS_P1;PMS_P2;Temp;Humidity;BMP_temperature;BMP_pressure;BME280_temperature;BME280_humidity;BME280_pressure;Samples;Min_cycle;Max_cycle;Signal;HPM_P1;HPM_P2
2023/12/01 00:01:22;;;;;;;10.00;5.70;;;;;;;-1.00;100.00;99513.02;105308;1256;60093;-53
2023/12/01 00:03:50;;;;;;;8.00;4.70;;;;;;;-1.01;100.00;99505.10;105243;1260;73169;-53
2023/12/01 00:06:18;;;;;;;10.90;6.10;;;;;;;-1.02;100.00;99506.70;105308;1254;65810;-53
2023/12/01 00:08:45;;;;;;;11.80;6.70;;;;;;;-1.03;100.00;99507.60;105304;1255;71377;-53
2023/12/01 00:11:12;;;;;;;11.90;5.80;;;;;;;-1.02;100.00;99498.61;105255;1258;59858;-52
2023/12/01 00:13:40;;;;;;;9.20;5.10;;;;;;;-1.00;100.00;99491.89;105328;1259;60121;-53
2023/12/01 00:16:08;;;;;;;9.00;5.40;;;;;;;-0.98;100.00;99481.15;105352;1254;73078;-53
2023/12/01 00:18:35;;;;;;;6.70;4.90;;;;;;;-0.96;100.00;99466.16;105662;1260;66812;-53
2023/12/01 00:21:03;;;;;;;10.90;5.30;;;;;;;-0.94;100.00;99457.17;106115;1255;72701;-53
2023/12/01 00:23:31;;;;;;;10.10;5.80;;;;;;;-0.93;100.00;99476.52;105308;1254;60557;-52
2023/12/01 00:25:58;;;;;;;11.60;5.30;;;;;;;-0.91;100.00;99484.44;105145;1254;60541;-53
2023/12/01 00:28:26;;;;;;;7.70;4.70;;;;;;;-0.92;100.00;99476.33;105337;1254;74271;-52
2023/12/01 00:30:53;;;;;;;7.90;4.10;;;;;;;-0.91;100.00;99473.16;105230;1259;66785;-53
2023/12/01 00:33:21;;;;;;;7.50;4.90;;;;;;;-0.89;100.00;99472.98;105563;1259;72731;-53
2023/12/01 00:35:49;;;;;;;11.40;5.70;;;;;;;-0.88;100.00;99470.68;105684;1258;61227;-53
2023/12/01 00:38:17;;;;;;;11.20;6.40;;;;;;;-0.87;100.00;99463.99;105076;1254;60523;-53
2023/12/01 00:40:44;;;;;;;9.80;6.10;;;;;;;-0.85;100.00;99456.05;105398;1258;73977;-53
2023/12/01 00:43:13;;;;;;;12.50;7.00;;;;;;;-0.86;100.00;99442.68;105354;1259;66255;-54
2023/12/01 00:45:40;;;;;;;11.00;6.30;;;;;;;-0.86;100.00;99429.46;108725;1259;71475;-54
2023/12/01 00:48:08;;;;;;;10.00;7.00;;;;;;;-0.86;100.00;99422.23;105383;1253;60631;-53
2023/12/01 00:50:35;;;;;;;12.60;7.20;;;;;;;-0.87;100.00;99415.02;105376;1254;60524;-53
2023/12/01 00:53:03;;;;;;;14.80;8.00;;;;;;;-0.89;100.00;99412.56;105320;1254;72683;-53
2023/12/01 00:55:30;;;;;;;11.00;6.70;;;;;;;-0.92;100.00;99408.70;105207;1260;71054;-53
2023/12/01 00:57:58;;;;;;;11.80;6.90;;;;;;;-0.94;100.00;99409.44;105089;1256;70784;-53
2023/12/01 01:00:25;;;;;;;11.20;6.70;;;;;;;-0.96;100.00;99406.29;105564;1256;62064;-53
2023/12/01 01:02:53;;;;;;;11.50;6.80;;;;;;;-0.98;100.00;99408.92;105158;1259;60485;-53
2023/12/01 01:05:20;;;;;;;15.20;7.40;;;;;;;-0.99;100.00;99394.85;105655;1259;72588;-52
2023/12/01 01:07:48;;;;;;;10.80;5.30;;;;;;;-1.01;100.00;99388.70;105290;1254;66748;-51
2023/12/01 01:10:15;;;;;;;8.80;5.00;;;;;;;-1.01;100.00;99390.27;105278;1258;73233;-51
2023/12/01 01:12:43;;;;;;;11.10;6.80;;;;;;;-1.02;100.00;99381.65;105284;1258;60473;-53
2023/12/01 01:15:10;;;;;;;10.00;6.50;;;;;;;-1.02;100.00;99378.68;105255;1254;60560;-52
2023/12/01 01:17:38;;;;;;;11.50;5.60;;;;;;;-1.01;100.00;99376.54;105317;1254;73852;-52
2023/12/01 01:20:07;;;;;;;8.70;5.60;;;;;;;-0.99;100.00;99375.30;105427;1258;66278;-52
2023/12/01 01:22:35;;;;;;;9.60;5.80;;;;;;;-0.99;100.00;99381.98;105248;1253;73201;-54
2023/12/01 01:25:04;;;;;;;10.50;5.60;;;;;;;-0.98;100.00;99389.73;105170;1253;61099;-53
2023/12/01 01:27:32;;;;;;;12.40;5.80;;;;;;;-0.98;100.00;99371.59;106383;1257;59724;-55
2023/12/01 01:29:59;;;;;;;12.70;7.10;;;;;;;-0.98;100.00;99363.14;106219;1258;71628;-51
2023/12/01 01:32:27;;;;;;;9.20;5.30;;;;;;;-0.98;100.00;99364.73;105160;1261;66096;-52
2023/12/01 01:34:54;;;;;;;10.80;6.60;;;;;;;-0.99;100.00;99372.12;105288;1260;71357;-52
2023/12/01 01:37:22;;;;;;;11.50;6.10;;;;;;;-0.98;100.00;99367.02;105345;1259;60533;-52
2023/12/01 01:39:49;;;;;;;12.00;7.60;;;;;;;-0.97;100.00;99344.11;105364;1255;60587;-52
2023/12/01 01:42:17;;;;;;;11.70;6.40;;;;;;;-0.97;100.00;99333.55;108658;1255;75917;-52
2023/12/01 01:44:44;;;;;;;11.30;6.80;;;;;;;-0.99;100.00;99339.54;109013;1255;67063;-52
2023/12/01 01:47:12;;;;;;;13.30;6.60;;;;;;;-1.00;100.00;99338.66;108841;1255;72674;-52
2023/12/01 01:49:39;;;;;;;10.80;6.70;;;;;;;-0.99;100.00;99329.33;108842;1255;59653;-53
2023/12/01 01:52:07;;;;;;;15.20;8.60;;;;;;;-1.00;100.00;99317.89;108918;1254;60204;-53
2023/12/01 01:54:34;;;;;;;12.20;7.00;;;;;;;-1.00;100.00;99299.74;108948;1253;73969;-53
2023/12/01 01:57:02;;;;;;;12.60;7.80;;;;;;;-1.01;100.00;99289.01;108692;1256;66961;-52
2023/12/01 01:59:30;;;;;;;13.70;7.40;;;;;;;-1.02;100.00;99279.00;108614;1253;73356;-52
2023/12/01 02:01:57;;;;;;;13.10;7.00;;;;;;;-1.01;100.00;99275.63;105152;1260;60454;-52
2023/12/01 02:04:25;;;;;;;9.20;6.20;;;;;;;-0.99;100.00;99279.66;105315;1259;60438;-52
2023/12/01 02:06:53;;;;;;;12.20;7.10;;;;;;;-0.98;100.00;99274.20;105201;1260;73960;-52
2023/12/01 02:09:21;;;;;;;9.90;6.60;;;;;;;-0.96;100.00;99255.87;108927;1254;67443;-53
2023/12/01 02:11:48;;;;;;;13.30;6.90;;;;;;;-0.95;100.00;99250.92;109000;1253;71224;-53
2023/12/01 02:14:15;;;;;;;10.90;6.70;;;;;;;-0.94;100.00;99242.11;108657;1257;59570;-53
2023/12/01 02:16:46;;;;;;;14.40;6.30;;;;;;;-0.92;100.00;99243.13;109047;1253;60098;-52
2023/12/01 02:19:14;;;;;;;13.00;7.60;;;;;;;-0.90;100.00;99234.14;108786;1254;73308;-52
2023/12/01 02:21:46;;;;;;;11.20;6.90;;;;;;;-0.88;100.00;99226.90;108733;1260;66294;-53
2023/12/01 02:24:14;;;;;;;11.30;5.90;;;;;;;-0.87;100.00;99226.02;108949;1254;71575;-52
2023/12/01 02:26:41;;;;;;;7.70;5.30;;;;;;;-0.86;100.00;99224.77;108822;1254;61572;-53
2023/12/01 02:29:09;;;;;;;9.80;5.50;;;;;;;-0.86;100.00;99209.62;108695;1254;60146;-53
2023/12/01 02:31:36;;;;;;;10.20;6.10;;;;;;;-0.85;100.00;99213.10;108953;1254;72137;-53
2023/12/01 02:34:04;;;;;;;10.10;5.70;;;;;;;-0.83;100.00;99209.39;108975;1253;65991;-52
2023/12/01 02:36:31;;;;;;;13.60;7.20;;;;;;;-0.81;100.00;99205.15;108179;1255;72681;-51
2023/12/01 02:38:59;;;;;;;13.00;7.00;;;;;;;-0.78;100.00;99205.98;105115;1254;60959;-50
2023/12/01 02:41:27;;;;;;;10.50;6.20;;;;;;;-0.77;100.00;99204.38;105165;1254;60652;-51
2023/12/01 02:43:54;;;;;;;18.60;8.90;;;;;;;-0.74;100.00;99202.77;104958;1255;74322;-52
2023/12/01 02:46:22;;;;;;;10.90;6.70;;;;;;;-0.72;100.00;99215.26;108684;1253;67434;-52
2023/12/01 02:48:51;;;;;;;12.30;7.00;;;;;;;-0.71;100.00;99209.09;106554;1257;72799;-52
2023/12/01 02:51:18;;;;;;;14.40;7.60;;;;;;;-0.71;100.00;99203.09;105192;1255;60338;-49
2023/12/01 02:53:46;;;;;;;18.00;8.90;;;;;;;-0.72;100.00;99192.01;105096;1260;60517;-50
2023/12/01 02:56:14;;;;;;;13.20;7.60;;;;;;;-0.73;100.00;99180.20;105611;1255;73101;-53
2023/12/01 02:58:41;;;;;;;14.90;8.00;;;;;;;-0.73;100.00;99179.67;105504;1254;64902;-52
2023/12/01 03:01:09;;;;;;;15.90;8.20;;;;;;;-0.73;100.00;99184.44;105427;1254;72974;-52
2023/12/01 03:03:36;;;;;;;13.00;7.80;;;;;;;-0.74;100.00;99168.42;105431;1256;60945;-52
2023/12/01 03:06:04;;;;;;;16.10;6.90;;;;;;;-0.76;100.00;99168.08;105456;1259;60554;-52
2023/12/01 03:08:32;;;;;;;10.90;6.80;;;;;;;-0.77;100.00;99159.10;105422;1253;72577;-53
2023/12/01 03:10:59;;;;;;;12.90;7.70;;;;;;;-0.75;100.00;99163.14;105358;1258;65517;-51
2023/12/01 03:13:27;;;;;;;14.10;7.50;;;;;;;-0.74;100.00;99168.94;105452;1259;71829;-52
2023/12/01 03:15:56;;;;;;;14.70;6.90;;;;;;;-0.73;100.00;99155.89;105511;1256;60938;-51
2023/12/01 03:18:23;;;;;;;13.60;8.60;;;;;;;-0.73;100.00;99148.67;105726;1253;60429;-52
2023/12/01 03:20:51;;;;;;;13.70;7.30;;;;;;;-0.72;100.00;99144.27;105497;1257;73917;-52
2023/12/01 03:23:18;;;;;;;10.90;6.60;;;;;;;-0.70;100.00;99153.05;105445;1259;67141;-53
2023/12/01 03:25:46;;;;;;;11.20;5.90;;;;;;;-0.67;100.00;99144.89;105412;1256;71208;-54
2023/12/01 03:28:14;;;;;;;11.30;6.80;;;;;;;-0.64;100.00;99126.01;105371;1256;60553;-52
2023/12/01 03:30:42;;;;;;;9.60;5.90;;;;;;;-0.60;100.00;99136.54;105489;1255;60432;-52
2023/12/01 03:33:12;;;;;;;9.20;5.60;;;;;;;-0.59;100.00;99137.90;105992;1254;73892;-52
2023/12/01 03:35:40;;;;;;;11.30;5.70;;;;;;;-0.57;100.00;99128.19;105233;1254;66726;-52
2023/12/01 03:38:07;;;;;;;7.30;4.90;;;;;;;-0.54;100.00;99127.64;105190;1256;72643;-52
2023/12/01 03:40:34;;;;;;;9.80;5.00;;;;;;;-0.51;100.00;99121.77;105247;1254;61194;-52
2023/12/01 03:43:02;;;;;;;10.30;5.30;;;;;;;-0.47;100.00;99107.09;105364;1258;60441;-52
2023/12/01 03:45:29;;;;;;;11.10;6.60;;;;;;;-0.46;100.00;99093.85;105273;1257;74384;-52
2023/12/01 03:47:57;;;;;;;7.90;5.50;;;;;;;-0.44;100.00;99079.20;105280;1253;66801;-52
2023/12/01 03:50:24;;;;;;;10.50;5.90;;;;;;;-0.42;100.00;99090.10;105428;1254;74327;-52
2023/12/01 03:52:51;;;;;;;8.40;5.20;;;;;;;-0.41;100.00;99081.60;105170;1256;60469;-52
2023/12/01 03:55:19;;;;;;;10.60;5.80;;;;;;;-0.39;100.00;99075.95;105063;1256;60517;-50
2023/12/01 03:57:47;;;;;;;8.70;6.40;;;;;;;-0.37;100.00;99060.06;105452;1258;73864;-52
2023/12/01 04:00:16;;;;;;;8.60;5.70;;;;;;;-0.36;100.00;99067.09;105245;1258;64663;-51
2023/12/01 04:02:46;;;;;;;9.30;5.70;;;;;;;-0.36;100.00;99069.57;106682;1254;72136;-50
2023/12/01 04:05:18;;;;;;;9.90;5.10;;;;;;;-0.35;100.00;99073.26;106403;1256;60443;-52
2023/12/01 04:07:53;;;;;;;8.20;5.50;;;;;;;-0.35;100.00;99081.20;107433;1254;60589;-52
2023/12/01 04:10:24;;;;;;;10.50;6.20;;;;;;;-0.36;100.00;99070.45;105299;1258;72680;-51
2023/12/01 04:12:54;;;;;;;11.20;6.50;;;;;;;-0.36;100.00;99044.36;105201;1254;65938;-52
2023/12/01 04:15:24;;;;;;;12.30;6.70;;;;;;;-0.37;100.00;99046.48;105993;1256;73225;-50
2023/12/01 04:17:53;;;;;;;8.70;4.80;;;;;;;-0.38;100.00;99062.53;105191;1258;62035;-51
2023/12/01 04:20:21;;;;;;;10.00;6.10;;;;;;;-0.39;100.00;99055.13;105211;1256;60490;-51
2023/12/01 04:22:51;;;;;;;8.90;6.10;;;;;;;-0.39;100.00;99069.23;105477;1258;71878;-51
2023/12/01 04:25:18;;;;;;;7.90;6.00;;;;;;;-0.39;100.00;99080.34;105268;1257;65647;-51
2023/12/01 04:27:46;;;;;;;9.20;5.80;;;;;;;-0.38;100.00;99032.39;105121;1261;72649;-51
2023/12/01 04:30:15;;;;;;;7.50;4.90;;;;;;;-0.37;100.00;99003.64;105666;1257;60546;-52
2023/12/01 04:32:52;;;;;;;10.30;6.40;;;;;;;-0.35;100.00;99026.52;105287;1254;60569;-52
2023/12/01 04:35:24;;;;;;;10.30;6.70;;;;;;;-0.33;100.00;99050.80;105589;1254;72669;-51
2023/12/01 04:37:52;;;;;;;9.90;6.00;;;;;;;-0.31;100.00;99056.24;109017;1254;66562;-51
2023/12/01 04:40:20;;;;;;;9.00;5.10;;;;;;;-0.30;100.00;99056.41;107640;1255;71521;-52
2023/12/01 04:42:48;;;;;;;12.30;6.20;;;;;;;-0.28;100.00;99045.63;105191;1253;61677;-52
2023/12/01 04:45:22;;;;;;;11.00;5.20;;;;;;;-0.26;100.00;99044.18;106188;1254;60531;-51
2023/12/01 04:47:52;;;;;;;9.80;5.80;;;;;;;-0.24;100.00;99046.96;108899;1253;73159;-51
2023/12/01 04:50:24;;;;;;;8.40;5.10;;;;;;;-0.22;100.00;99030.36;108846;1256;67349;-52
2023/12/01 04:52:53;;;;;;;8.60;4.30;;;;;;;-0.19;100.00;99016.55;108982;1253;73888;-52
2023/12/01 04:55:25;;;;;;;9.60;5.70;;;;;;;-0.15;100.00;99031.12;108949;1254;60220;-52
2023/12/01 04:57:54;;;;;;;10.10;5.50;;;;;;;-0.12;100.00;99033.38;108935;1254;59110;-52
2023/12/01 05:00:23;;;;;;;7.40;4.90;;;;;;;-0.10;100.00;99029.45;109033;1254;73907;-51
2023/12/01 05:02:51;;;;;;;9.70;5.40;;;;;;;-0.07;100.00;99038.03;108913;1254;65834;-52
2023/12/01 05:05:29;;;;;;;9.90;6.30;;;;;;;-0.05;100.00;99047.53;105706;1258;71481;-52
2023/12/01 05:07:58;;;;;;;9.90;5.30;;;;;;;-0.04;100.00;99049.64;108924;1253;59896;-52
2023/12/01 05:10:27;;;;;;;9.90;6.30;;;;;;;-0.02;100.00;99033.02;108920;1254;59014;-53
2023/12/01 05:13:02;;;;;;;9.50;5.80;;;;;;;0.01;100.00;99025.91;108990;1253;73879;-52
2023/12/01 05:15:30;;;;;;;;;;;;;;;0.04;100.00;99029.02;108818;1253;65200;-53
2023/12/01 05:18:07;;;;;;;11.50;7.60;;;;;;;0.07;100.00;99029.88;108879;1258;73061;-53
2023/12/01 05:20:35;;;;;;;11.50;8.10;;;;;;;0.09;100.00;99026.99;106689;1255;60478;-52
2023/12/01 05:23:05;;;;;;;11.80;8.50;;;;;;;0.12;100.00;99027.48;105269;1254;60469;-52
2023/12/01 05:25:33;;;;;;;14.90;8.40;;;;;;;0.15;100.00;99030.08;106256;1258;71658;-52
2023/12/01 05:28:03;;;;;;;12.70;8.30;;;;;;;0.16;100.00;99024.94;105398;1256;67417;-52
2023/12/01 05:30:34;;;;;;;12.00;8.60;;;;;;;0.17;100.00;99024.38;105683;1258;72507;-50
2023/12/01 05:33:04;;;;;;;15.20;9.40;;;;;;;0.18;100.00;99027.36;106441;1253;60532;-53
2023/12/01 05:35:33;;;;;;;14.10;8.80;;;;;;;0.18;100.00;99028.77;105385;1255;60484;-52
2023/12/01 05:38:04;;;;;;;14.30;8.90;;;;;;;0.18;100.00;99028.77;105251;1254;72667;-51
2023/12/01 05:40:35;;;;;;;13.90;9.00;;;;;;;0.18;100.00;99024.70;105366;1256;65984;-52
2023/12/01 05:43:05;;;;;;;14.00;9.20;;;;;;;0.17;100.00;99028.61;105253;1256;71737;-52
2023/12/01 05:45:33;;;;;;;12.40;8.90;;;;;;;0.17;100.00;99032.50;107646;1255;60540;-52
2023/12/01 05:48:02;;;;;;;12.80;8.00;;;;;;;0.18;100.00;99040.95;105187;1256;60527;-52
2023/12/01 05:50:31;;;;;;;12.10;8.40;;;;;;;0.18;100.00;99042.70;105877;1254;73947;-52
2023/12/01 05:53:00;;;;;;;11.90;7.90;;;;;;;0.18;100.00;99025.23;106340;1258;65570;-53
2023/12/01 05:55:29;;;;;;;11.40;8.70;;;;;;;0.20;100.00;99008.45;105321;1255;72744;-52
2023/12/01 05:58:04;;;;;;;11.50;8.30;;;;;;;0.21;100.00;99012.48;105119;1255;60431;-53
2023/12/01 06:00:31;;;;;;;13.00;9.20;;;;;;;0.24;100.00;99006.10;105441;1258;60592;-52
2023/12/01 06:03:01;;;;;;;11.70;8.90;;;;;;;0.25;100.00;99009.42;105445;1253;72972;-52
2023/12/01 06:05:29;;;;;;;11.70;8.60;;;;;;;0.27;100.00;99015.73;105436;1254;66226;-52
2023/12/01 06:07:58;;;;;;;14.20;8.40;;;;;;;0.28;100.00;99006.17;105443;1257;72495;-53
2023/12/01 06:10:27;;;;;;;12.90;8.70;;;;;;;0.30;100.00;99011.26;105639;1256;60481;-52
2023/12/01 06:12:55;;;;;;;13.70;7.70;;;;;;;0.33;100.00;99023.56;105425;1258;60369;-52
2023/12/01 06:15:24;;;;;;;11.10;8.70;;;;;;;0.35;100.00;99027.57;105721;1255;71944;-52
2023/12/01 06:17:52;;;;;;;13.80;9.20;;;;;;;0.37;100.00;99012.72;105801;1258;67192;-52
2023/12/01 06:20:21;;;;;;;9.90;7.10;;;;;;;0.38;100.00;98996.81;105184;1258;73206;-51
2023/12/01 06:22:52;;;;;;;11.30;7.90;;;;;;;0.41;100.00;99001.89;105312;1256;63220;-52
2023/12/01 06:25:20;;;;;;;13.90;9.00;;;;;;;0.44;100.00;99007.46;105182;1259;60410;-53
2023/12/01 06:27:49;;;;;;;12.10;7.80;;;;;;;0.46;100.00;99010.95;106220;1256;74529;-52
2023/12/01 06:30:17;;;;;;;11.60;7.90;;;;;;;0.48;100.00;99015.87;105234;1255;66795;-52
2023/12/01 06:32:45;;;;;;;9.20;7.30;;;;;;;0.50;100.00;99015.30;105454;1259;71585;-52
2023/12/01 06:35:14;;;;;;;9.30;7.20;;;;;;;0.53;100.00;99010.27;105295;1256;61993;-53
2023/12/01 06:37:42;;;;;;;15.30;8.50;;;;;;;0.56;100.00;99009.88;105335;1256;60531;-52
2023/12/01 06:40:12;;;;;;;15.60;9.80;;;;;;;0.58;100.00;99007.55;105341;1258;72925;-52
2023/12/01 06:42:47;;;;;;;13.50;9.30;;;;;;;0.60;100.00;99007.33;105539;1258;66674;-51
2023/12/01 06:45:16;;;;;;;14.20;9.30;;;;;;;0.62;100.00;99004.80;106153;1258;71735;-52
2023/12/01 06:47:48;;;;;;;14.30;8.90;;;;;;;0.63;100.00;99000.19;105067;1259;60535;-53
2023/12/01 06:50:17;;;;;;;16.30;8.70;;;;;;;0.66;100.00;98996.63;105127;1254;61061;-51
2023/12/01 06:52:46;;;;;;;14.70;8.10;;;;;;;0.68;100.00;99000.10;104819;1256;72622;-51
2023/12/01 06:55:14;;;;;;;12.70;8.00;;;;;;;0.70;100.00;99013.45;104662;1253;67278;-51
2023/12/01 06:57:46;;;;;;;12.20;8.60;;;;;;;0.72;100.00;99018.20;104679;1257;71533;-51
2023/12/01 07:03:03;;;;;;;12.80;8.30;;;;;;;0.74;100.00;98992.02;105273;1256;60617;-52
2023/12/01 07:05:32;;;;;;;12.30;8.70;;;;;;;0.79;100.00;98990.34;105143;1254;71653;-52
2023/12/01 07:08:01;;;;;;;10.00;7.40;;;;;;;0.81;100.00;99009.38;104818;1256;66402;-53
2023/12/01 07:10:29;;;;;;;12.60;8.90;;;;;;;0.83;100.00;99003.68;105375;1256;72228;-52
2023/12/01 07:12:56;;;;;;;12.20;7.50;;;;;;;0.84;100.00;99001.90;107696;1253;60041;-53
2023/12/01 07:15:24;;;;;;;12.80;8.40;;;;;;;0.87;100.00;99015.42;105539;1256;60384;-52
2023/12/01 07:17:54;;;;;;;11.50;8.50;;;;;;;0.89;100.00;99027.56;105805;1256;74746;-51
2023/12/01 07:20:22;;;;;;;15.10;8.90;;;;;;;0.91;100.00;99028.58;104716;1254;67371;-52
2023/12/01 07:22:51;;;;;;;12.30;8.70;;;;;;;0.92;100.00;99028.93;104526;1258;73402;-53
2023/12/01 07:25:25;;;;;;;14.70;9.30;;;;;;;0.94;100.00;99029.92;104725;1253;61364;-51
2023/12/01 07:27:58;;;;;;;12.40;8.50;;;;;;;0.96;100.00;99017.34;105773;1254;60530;-52
2023/12/01 07:30:27;;;;;;;13.00;9.00;;;;;;;0.97;100.00;98996.12;104760;1258;72498;-51
2023/12/01 07:32:56;;;;;;;15.30;9.50;;;;;;;0.99;100.00;98996.08;107356;1258;67241;-50
2023/12/01 07:35:24;;;;;;;14.00;8.90;;;;;;;1.01;100.00;99011.05;104753;1261;71487;-51
2023/12/01 07:37:52;;;;;;;12.50;8.90;;;;;;;1.03;100.00;98999.32;104556;1253;61082;-51
2023/12/01 07:40:21;;;;;;;13.60;10.10;;;;;;;1.05;100.00;98980.22;104574;1256;60429;-52
2023/12/01 07:42:51;;;;;;;11.40;9.50;;;;;;;1.06;100.00;98980.02;108926;1255;72648;-52
2023/12/01 07:45:19;;;;;;;13.50;9.50;;;;;;;1.08;100.00;98988.11;108861;1253;65646;-52
2023/12/01 07:47:47;;;;;;;12.60;8.90;;;;;;;1.10;100.00;99001.14;108862;1254;72752;-52
2023/12/01 07:50:15;;;;;;;11.80;8.80;;;;;;;1.13;100.00;98991.16;108840;1258;60901;-52
2023/12/01 07:52:44;;;;;;;12.10;8.30;;;;;;;1.18;100.00;98981.36;108877;1253;58843;-52
2023/12/01 07:55:11;;;;;;;13.90;8.90;;;;;;;1.21;100.00;98996.11;108944;1253;73913;-52
2023/12/01 07:57:39;;;;;;;14.10;8.10;;;;;;;1.24;100.00;98990.39;108019;1253;67296;-50
2023/12/01 08:00:16;;;;;;;13.90;9.50;;;;;;;1.26;100.00;98971.98;104492;1259;72745;-51
2023/12/01 08:02:46;;;;;;;16.30;10.70;;;;;;;1.29;100.00;98982.85;109102;1256;59340;-52
2023/12/01 08:05:14;;;;;;;13.80;10.20;;;;;;;1.30;100.00;98992.71;108908;1253;61693;-52
2023/12/01 08:07:43;;;;;;;15.30;10.80;;;;;;;1.32;100.00;99003.64;109037;1253;73744;-52
2023/12/01 08:10:16;;;;;;;15.00;10.00;;;;;;;1.34;100.00;99007.84;109014;1253;67381;-53
2023/12/01 08:12:45;;;;;;;17.40;12.50;;;;;;;1.36;100.00;99023.69;108658;1256;72508;-52
2023/12/01 08:15:13;;;;;;;18.00;10.90;;;;;;;1.35;100.00;99024.44;107972;1257;60466;-52
2023/12/01 08:17:42;;;;;;;14.50;10.30;;;;;;;1.34;100.00;99021.27;104646;1259;60461;-52
2023/12/01 08:20:10;;;;;;;13.50;9.10;;;;;;;1.34;100.00;99028.16;106696;1254;74308;-52
2023/12/01 08:22:39;;;;;;;17.00;11.50;;;;;;;1.33;100.00;99027.13;104835;1256;67187;-52
2023/12/01 08:25:07;;;;;;;15.70;10.10;;;;;;;1.33;100.00;99029.60;106047;1258;71452;-52
2023/12/01 08:27:36;;;;;;;13.80;10.10;;;;;;;1.34;100.00;99011.38;104520;1254;3830938;-53
2023/12/01 08:31:55;;;;;;;15.10;11.40;;;;;;;1.37;100.00;99086.42;101734;1290;601479;-52
2023/12/01 08:34:23;;;;;;;12.40;8.60;;;;;;;1.39;100.00;99097.17;105257;1265;59766;-53
2023/12/01 08:36:51;;;;;;;17.90;10.60;;;;;;;1.39;100.00;99072.95;105640;1266;58945;-53
2023/12/01 08:39:20;;;;;;;12.80;9.50;;;;;;;1.39;100.00;99071.35;103830;1269;73266;-53
2023/12/01 08:41:53;;;;;;;15.80;10.00;;;;;;;1.41;100.00;99072.02;103950;1269;67559;-52
2023/12/01 08:44:24;;;;;;;17.10;10.00;;;;;;;1.41;100.00;99076.44;103869;1268;3995363;-53
2023/12/01 08:46:51;;;;;;;13.00;8.70;;;;;;;1.39;100.00;99072.77;104219;1268;59423;-52
2023/12/01 08:49:19;;;;;;;17.40;10.30;;;;;;;1.39;100.00;99063.39;104249;1267;59834;-53
2023/12/01 08:51:46;;;;;;;15.40;10.00;;;;;;;1.40;100.00;99061.10;104297;1268;59620;-53
2023/12/01 08:54:13;;;;;;;18.50;11.90;;;;;;;1.40;100.00;99061.80;104163;1262;71726;-53
2023/12/01 08:56:48;;;;;;;16.00;10.90;;;;;;;1.40;100.00;99069.91;104077;1263;67190;-53
2023/12/01 08:59:17;;;;;;;17.30;12.50;;;;;;;1.39;100.00;99062.33;104065;1265;72738;-53
2023/12/01 09:01:45;;;;;;;17.40;12.40;;;;;;;1.36;100.00;99058.85;104662;1263;60858;-52
2023/12/01 09:04:13;;;;;;;18.00;11.60;;;;;;;1.33;100.00;99055.40;104386;1263;60429;-53
2023/12/01 09:06:40;;;;;;;20.80;14.40;;;;;;;1.30;100.00;99066.77;104275;1263;73960;-51
2023/12/01 09:09:08;;;;;;;21.10;14.00;;;;;;;1.26;100.00;99072.36;104255;1268;67045;-54
2023/12/01 09:11:36;;;;;;;19.40;12.40;;;;;;;1.23;100.00;99064.83;104965;1268;71213;-53
2023/12/01 09:14:04;;;;;;;22.50;13.50;;;;;;;1.20;100.00;99058.33;105621;1263;59823;-53
2023/12/01 09:16:31;;;;;;;17.10;11.30;;;;;;;1.19;100.00;99052.38;103783;1268;59733;-53
2023/12/01 09:18:59;;;;;;;18.80;11.20;;;;;;;1.17;100.00;99054.70;103803;1263;75195;-52
2023/12/01 09:21:28;;;;;;;18.10;12.30;;;;;;;1.16;100.00;99054.73;108323;1263;65759;-54
2023/12/01 09:23:56;;;;;;;17.60;12.50;;;;;;;1.17;100.00;99038.98;104943;1266;72854;-54
2023/12/01 09:26:24;;;;;;;16.80;11.50;;;;;;;1.19;100.00;99046.90;104274;1268;60931;-51
2023/12/01 09:28:52;;;;;;;15.20;10.80;;;;;;;1.21;100.00;99054.42;104486;1263;59723;-54
2023/12/01 09:31:21;;;;;;;16.60;11.50;;;;;;;1.24;100.00;99060.73;104165;1259;72798;-53
2023/12/01 09:33:49;;;;;;;18.10;12.20;;;;;;;1.27;100.00;99048.30;105247;1257;70124;-53
2023/12/01 09:36:17;;;;;;;20.30;12.10;;;;;;;1.30;100.00;99031.60;106155;1257;72497;-53
2023/12/01 09:38:48;;;;;;;20.30;12.10;;;;;;;1.34;100.00;99043.37;104477;1256;59978;-53
2023/12/01 09:41:16;;;;;;;17.50;11.30;;;;;;;1.38;100.00;99043.61;105416;1262;59179;-54
2023/12/01 09:43:44;;;;;;;19.00;12.10;;;;;;;1.41;100.00;99041.08;104349;1256;76164;-54
2023/12/01 09:46:11;;;;;;;18.30;12.20;;;;;;;1.44;100.00;99042.78;104325;1262;68101;-54
2023/12/01 09:48:40;;;;;;;21.10;11.80;;;;;;;1.46;100.00;99034.76;104357;1257;71514;-54
2023/12/01 09:51:08;;;;;;;17.70;11.90;;;;;;;1.47;100.00;99046.06;104490;1258;61378;-54
2023/12/01 09:53:35;;;;;;;17.80;11.80;;;;;;;1.48;100.00;99049.59;105068;1256;60217;-52
2023/12/01 09:56:05;;;;;;;16.20;12.00;;;;;;;1.48;100.00;99058.23;104343;1258;71999;-52
2023/12/01 09:58:35;;;;;;;19.70;13.50;;;;;;;1.49;100.00;99083.34;106842;1259;67469;-52
2023/12/01 10:01:02;;;;;;;17.60;11.50;;;;;;;1.50;100.00;99093.76;103943;1257;72756;-52
2023/12/01 10:03:30;;;;;;;18.60;11.70;;;;;;;1.50;100.00;99090.04;104311;1257;60974;-53
2023/12/01 10:05:58;;;;;;;19.30;13.40;;;;;;;1.50;100.00;99091.27;105754;1259;59287;-55
2023/12/01 10:08:27;;;;;;;16.40;11.30;;;;;;;1.50;100.00;99083.13;104516;1256;73114;-53
2023/12/01 10:10:54;;;;;;;14.00;11.70;;;;;;;1.52;100.00;99066.84;105210;1260;67427;-53
2023/12/01 10:13:22;;;;;;;19.10;11.60;;;;;;;1.52;100.00;99073.02;104436;1257;71469;-53
2023/12/01 10:15:50;;;;;;;16.20;10.90;;;;;;;1.53;100.00;99065.02;104215;1262;60362;-54
2023/12/01 10:18:19;;;;;;;16.90;11.30;;;;;;;1.56;100.00;99057.01;105941;1259;58852;-54
2023/12/01 10:20:59;;;;;;;16.70;12.10;;;;;;;1.58;100.00;99058.37;104475;1262;73433;-53
2023/12/01 10:23:30;;;;;;;15.50;11.90;;;;;;;1.61;100.00;99073.52;104626;1260;65939;-54
2023/12/01 10:25:57;;;;;;;20.80;13.90;;;;;;;1.64;100.00;99066.19;104448;1257;73274;-52
2023/12/01 10:28:41;;;;;;;17.80;12.90;;;;;;;1.65;100.00;99064.05;104798;1256;59811;-53
2023/12/01 10:31:12;;;;;;;19.60;13.40;;;;;;;1.65;100.00;99064.21;108461;1256;60637;-54
2023/12/01 10:33:39;;;;;;;19.10;12.40;;;;;;;1.65;100.00;99061.57;108640;1256;75765;-54
2023/12/01 10:36:08;;;;;;;21.00;14.40;;;;;;;1.62;100.00;99084.78;108810;1256;65641;-54
2023/12/01 10:38:36;;;;;;;18.70;12.10;;;;;;;1.59;100.00;99106.99;108621;1259;78497;-54
2023/12/01 10:41:04;;;;;;;17.50;12.70;;;;;;;1.53;100.00;99105.71;108610;1256;63179;-54
2023/12/01 10:43:32;;;;;;;20.00;12.80;;;;;;;1.48;100.00;99106.86;108493;1259;64057;-54
2023/12/01 10:46:02;;;;;;;19.10;12.80;;;;;;;1.44;100.00;99094.76;108758;1256;74051;-54
2023/12/01 10:48:32;;;;;;;17.40;11.70;;;;;;;1.42;100.00;99096.05;108519;1256;65133;-53
2023/12/01 10:51:05;;;;;;;18.40;12.40;;;;;;;1.42;100.00;99090.92;108655;1256;72489;-54
2023/12/01 10:53:34;;;;;;;18.00;12.70;;;;;;;1.42;100.00;99076.42;108801;1257;60987;-54
2023/12/01 10:56:03;;;;;;;21.70;12.90;;;;;;;1.44;100.00;99070.90;108786;1257;59071;-54
2023/12/01 10:58:31;;;;;;;17.20;11.70;;;;;;;1.45;100.00;99072.29;108678;1256;74022;-54
2023/12/01 11:00:59;;;;;;;16.10;11.80;;;;;;;1.47;100.00;99078.43;108658;1256;66776;-55
2023/12/01 11:03:29;;;;;;;16.00;12.20;;;;;;;1.48;100.00;99078.40;108597;1256;75071;-54
2023/12/01 11:06:01;;;;;;;19.10;11.90;;;;;;;1.49;100.00;99077.33;108690;1256;61027;-54
2023/12/01 11:08:50;;;;;;;17.10;10.90;;;;;;;1.50;100.00;99100.82;107108;1260;59118;-53
2023/12/01 11:11:44;;;;;;;16.50;11.20;;;;;;;1.52;100.00;99110.16;108602;1256;71856;-54
2023/12/01 11:14:19;;;;;;;20.90;13.00;;;;;;;1.51;100.00;99139.35;108811;1256;65767;-54
2023/12/01 11:16:47;;;;;;;17.90;11.90;;;;;;;1.49;100.00;99147.34;105174;1259;73393;-53
2023/12/01 11:19:15;;;;;;;23.30;15.60;;;;;;;1.46;100.00;99135.54;104404;1262;59800;-53
2023/12/01 11:21:43;;;;;;;20.70;14.60;;;;;;;1.44;100.00;99129.59;104339;1256;60163;-50
2023/12/01 11:24:27;;;;;;;19.00;12.80;;;;;;;1.42;100.00;99129.64;104077;1256;73568;-53